createdAt,value
2018-06-13T00:00:53.566Z,9.30
2018-06-13T00:03:22.464Z,8.30
2018-06-13T00:05:51.336Z,12.67
2018-06-13T00:08:20.214Z,6.70
2018-06-13T00:10:49.146Z,8.10
2018-06-13T00:13:18.008Z,13.00
2018-06-13T00:15:47.076Z,14.77
2018-06-13T00:18:15.884Z,7.23
2018-06-13T00:20:44.756Z,8.37
2018-06-13T00:23:13.558Z,9.23
2018-06-13T00:25:42.461Z,9.67
2018-06-13T00:28:11.285Z,11.07
2018-06-13T00:30:39.779Z,10.20
2018-06-13T00:33:08.632Z,8.73
2018-06-13T00:35:37.444Z,9.67
2018-06-13T00:38:05.927Z,9.87
2018-06-13T00:40:34.334Z,8.73
2018-06-13T00:43:03.259Z,10.87
2018-06-13T00:45:32.208Z,11.03
2018-06-13T00:48:01.083Z,8.43
2018-06-13T00:50:29.527Z,9.27
2018-06-13T00:52:58.444Z,7.97
2018-06-13T00:55:27.265Z,12.70
2018-06-13T00:57:56.177Z,7.07
2018-06-13T01:00:25.034Z,7.53
2018-06-13T01:02:53.968Z,8.83
2018-06-13T01:05:22.824Z,9.40
2018-06-13T01:07:51.689Z,9.23
2018-06-13T01:10:20.537Z,8.93
2018-06-13T01:12:49.464Z,11.57
2018-06-13T01:15:18.324Z,7.17
2018-06-13T01:17:47.160Z,7.93
2018-06-13T01:20:15.652Z,6.73
2018-06-13T01:22:44.490Z,12.40
2018-06-13T01:25:13.413Z,7.20
2018-06-13T01:27:41.899Z,11.20
2018-06-13T01:30:10.425Z,7.97
2018-06-13T01:32:39.276Z,9.13
2018-06-13T01:35:07.712Z,9.10
2018-06-13T01:37:36.552Z,12.80
2018-06-13T01:40:05.568Z,9.60
2018-06-13T01:42:34.394Z,7.70
2018-06-13T01:45:03.453Z,9.33
2018-06-13T01:47:32.276Z,10.60
2018-06-13T01:50:00.800Z,9.87
2018-06-13T01:52:29.732Z,9.13
2018-06-13T01:54:58.609Z,8.30
2018-06-13T01:57:27.484Z,7.67
2018-06-13T01:59:56.396Z,12.43
2018-06-13T02:02:25.212Z,7.73
2018-06-13T02:04:54.132Z,7.93
2018-06-13T02:07:22.531Z,7.10
2018-06-13T02:09:51.470Z,9.93
2018-06-13T02:12:20.288Z,7.80
2018-06-13T02:14:48.768Z,6.53
2018-06-13T02:17:17.652Z,9.43
2018-06-13T02:19:46.586Z,9.13
2018-06-13T02:22:15.501Z,12.90
2018-06-13T02:24:44.353Z,9.23
2018-06-13T02:27:13.261Z,11.47
2018-06-13T02:29:42.144Z,11.00
2018-06-13T02:32:11.016Z,9.23
2018-06-13T02:34:39.868Z,8.67
2018-06-13T02:37:08.942Z,8.87
2018-06-13T02:39:37.792Z,11.10
2018-06-13T02:42:06.720Z,6.20
2018-06-13T02:44:35.561Z,9.03
2018-06-13T02:47:04.478Z,7.13
2018-06-13T02:49:33.337Z,11.83
2018-06-13T02:52:01.784Z,8.80
2018-06-13T02:54:30.688Z,12.37
2018-06-13T02:56:59.168Z,12.00
2018-06-13T02:59:28.041Z,11.67
2018-06-13T03:01:56.911Z,9.40
2018-06-13T03:04:25.764Z,10.60
2018-06-13T03:06:54.245Z,6.60
2018-06-13T03:09:22.655Z,10.23
2018-06-13T03:11:51.576Z,11.03
2018-06-13T03:14:20.456Z,9.37
2018-06-13T03:16:49.288Z,7.80
2018-06-13T03:19:18.183Z,10.90
2018-06-13T03:21:46.631Z,9.50
2018-06-13T03:24:15.506Z,9.20
2018-06-13T03:26:44.405Z,8.13
2018-06-13T03:29:13.362Z,6.20
2018-06-13T03:31:42.249Z,7.97
2018-06-13T03:34:11.115Z,8.17
2018-06-13T03:36:39.568Z,6.30
2018-06-13T03:39:09.301Z,6.20
2018-06-13T03:41:37.764Z,10.83
2018-06-13T03:44:06.633Z,8.17
2018-06-13T03:46:35.460Z,9.43
2018-06-13T03:49:04.369Z,6.90
2018-06-13T03:51:33.244Z,12.40
2018-06-13T03:54:02.101Z,6.80
2018-06-13T03:56:30.968Z,8.70
2018-06-13T03:58:59.844Z,9.23
2018-06-13T04:01:28.712Z,9.67
2018-06-13T04:03:57.219Z,7.00
2018-06-13T04:06:26.041Z,7.00
2018-06-13T04:08:54.948Z,8.23
2018-06-13T04:11:23.792Z,9.63
2018-06-13T04:13:52.704Z,6.60
2018-06-13T04:16:21.564Z,7.13
2018-06-13T04:18:50.468Z,11.80
2018-06-13T04:21:19.316Z,8.67
2018-06-13T04:23:48.228Z,7.77
2018-06-13T04:26:17.107Z,13.10
2018-06-13T04:28:45.552Z,10.60
2018-06-13T04:31:14.623Z,9.37
2018-06-13T04:33:43.476Z,8.97
2018-06-13T04:36:12.396Z,7.87
2018-06-13T04:38:41.170Z,8.47
2018-06-13T04:41:10.108Z,7.77
2018-06-13T04:43:38.913Z,6.23
2018-06-13T04:46:07.860Z,10.73
2018-06-13T04:48:36.672Z,6.73
2018-06-13T04:51:05.592Z,9.10
2018-06-13T04:53:34.410Z,8.57
2018-06-13T04:56:03.319Z,8.13
2018-06-13T04:58:32.165Z,9.43
2018-06-13T05:01:00.612Z,7.97
2018-06-13T05:03:29.460Z,9.23
2018-06-13T05:05:58.333Z,11.33
2018-06-13T05:08:26.849Z,8.37
2018-06-13T05:10:55.730Z,10.93
2018-06-13T05:13:24.584Z,13.47
2018-06-13T05:15:53.497Z,9.67
2018-06-13T05:18:22.077Z,10.27
2018-06-13T05:20:50.509Z,7.87
2018-06-13T05:23:19.337Z,9.63
2018-06-13T05:25:47.811Z,8.67
2018-06-13T05:28:16.613Z,7.70
2018-06-13T05:30:45.529Z,8.07
2018-06-13T05:33:14.333Z,7.90
2018-06-13T05:35:43.235Z,9.57
2018-06-13T05:38:12.301Z,9.80
2018-06-13T05:40:41.956Z,8.13
2018-06-13T05:43:10.845Z,9.90
2018-06-13T05:45:40.329Z,7.63
2018-06-13T05:48:09.189Z,8.30
2018-06-13T05:50:38.032Z,9.60
2018-06-13T05:53:07.192Z,7.40
2018-06-13T05:55:36.332Z,7.20
2018-06-13T05:58:05.265Z,11.23
2018-06-13T06:00:34.185Z,10.60
2018-06-13T06:03:03.892Z,10.50
2018-06-13T06:05:32.789Z,10.57
2018-06-13T06:08:01.989Z,8.37
2018-06-13T06:10:30.977Z,10.07
2018-06-13T06:12:59.800Z,9.13
2018-06-13T06:15:28.669Z,9.77
2018-06-13T06:17:57.609Z,9.23
2018-06-13T06:20:26.045Z,10.03
2018-06-13T06:22:55.000Z,10.00
2018-06-13T06:25:23.876Z,7.33
2018-06-13T06:27:52.903Z,8.07
2018-06-13T06:30:21.844Z,9.17
2018-06-13T06:32:50.327Z,4.80
2018-06-13T06:35:19.222Z,7.87
2018-06-13T06:37:47.689Z,8.93
2018-06-13T06:40:16.561Z,8.90
2018-06-13T06:42:45.488Z,11.23
2018-06-13T06:45:14.429Z,10.27
2018-06-13T06:47:43.325Z,8.07
2018-06-13T06:50:12.219Z,9.07
2018-06-13T06:52:41.120Z,9.87
2018-06-13T06:55:09.991Z,7.27
2018-06-13T06:57:38.948Z,11.27
2018-06-13T07:00:07.858Z,8.93
2018-06-13T07:02:36.749Z,5.73
2018-06-13T07:05:05.563Z,6.83
2018-06-13T07:07:34.520Z,9.07
2018-06-13T07:10:03.316Z,6.47
2018-06-13T07:12:32.241Z,8.97
2018-06-13T07:15:01.097Z,7.70
2018-06-13T07:17:30.117Z,11.77
2018-06-13T07:19:59.056Z,8.10
2018-06-13T07:22:27.839Z,8.37
2018-06-13T07:24:56.859Z,11.77
2018-06-13T07:27:25.668Z,11.63
2018-06-13T07:29:54.599Z,10.53
2018-06-13T07:32:23.393Z,7.80
2018-06-13T07:34:51.823Z,7.33
2018-06-13T07:37:20.696Z,7.93
2018-06-13T07:39:49.588Z,9.43
2018-06-13T07:42:23.416Z,7.97
2018-06-13T07:44:52.459Z,9.33
2018-06-13T07:47:20.878Z,11.03
2018-06-13T07:49:49.881Z,9.77
2018-06-13T07:52:18.769Z,9.03
2018-06-13T07:54:47.639Z,4.70
2018-06-13T07:57:16.442Z,7.53
2018-06-13T07:59:45.312Z,9.93
2018-06-13T08:02:14.171Z,7.17
2018-06-13T08:04:43.104Z,11.90
2018-06-13T08:07:11.982Z,6.50
2018-06-13T08:09:40.797Z,8.10
2018-06-13T08:12:09.767Z,5.47
2018-06-13T08:14:38.577Z,7.87
2018-06-13T08:17:07.602Z,9.53
2018-06-13T08:19:36.444Z,8.30
2018-06-13T08:22:05.376Z,9.30
2018-06-13T08:24:45.263Z,8.57
2018-06-13T08:27:13.740Z,9.53
2018-06-13T08:29:42.608Z,8.67
2018-06-13T08:32:11.532Z,10.33
2018-06-13T08:34:40.498Z,7.40
2018-06-13T08:37:09.461Z,14.20
2018-06-13T08:39:38.281Z,8.30
2018-06-13T08:42:08.619Z,8.07
2018-06-13T08:44:37.484Z,8.47
2018-06-13T08:47:06.395Z,8.50
2018-06-13T08:49:34.863Z,9.80
2018-06-13T08:52:03.841Z,10.50
2018-06-13T08:54:32.840Z,11.43
2018-06-13T08:57:01.673Z,8.10
2018-06-13T08:59:30.777Z,11.33
2018-06-13T09:02:00.730Z,9.23
2018-06-13T09:04:29.631Z,6.50
2018-06-13T09:06:58.554Z,10.23
2018-06-13T09:09:27.509Z,9.27
2018-06-13T09:11:56.513Z,11.43
2018-06-13T09:14:26.632Z,10.00
2018-06-13T09:16:55.697Z,6.70
2018-06-13T09:19:27.306Z,7.90
2018-06-13T09:21:56.315Z,7.33
2018-06-13T09:24:25.272Z,7.03
2018-06-13T09:26:55.681Z,8.00
2018-06-13T09:29:24.720Z,10.97
2018-06-13T09:31:53.606Z,8.70
2018-06-13T09:34:22.561Z,8.40
2018-06-13T09:36:51.880Z,7.00
2018-06-13T09:39:20.398Z,8.30
2018-06-13T09:41:54.607Z,8.47
2018-06-13T09:44:23.573Z,6.33
2018-06-13T09:46:52.461Z,7.37
2018-06-13T09:49:20.926Z,11.70
2018-06-13T09:51:49.929Z,6.10
2018-06-13T09:54:18.793Z,8.07
2018-06-13T09:56:47.825Z,7.30
2018-06-13T09:59:20.218Z,8.80
2018-06-13T10:01:55.045Z,10.53
2018-06-13T10:04:23.987Z,5.13
2018-06-13T10:06:53.381Z,6.20
2018-06-13T10:09:22.304Z,7.47
2018-06-13T10:11:51.280Z,8.50
2018-06-13T10:14:20.198Z,7.23
2018-06-13T10:16:48.764Z,9.37
2018-06-13T10:19:18.601Z,6.00
2018-06-13T10:21:47.597Z,6.47
2018-06-13T10:24:16.533Z,6.23
2018-06-13T10:26:45.516Z,5.47
2018-06-13T10:29:14.382Z,10.43
2018-06-13T10:31:43.443Z,6.30
2018-06-13T10:34:12.523Z,7.83
2018-06-13T10:36:41.418Z,6.10
2018-06-13T10:39:10.391Z,8.27
2018-06-13T10:41:39.301Z,4.80
2018-06-13T10:44:08.275Z,7.47
2018-06-13T10:46:54.785Z,9.00
2018-06-13T10:49:23.759Z,7.75
2018-06-13T10:51:52.945Z,6.08
2018-06-13T10:54:21.921Z,6.92
2018-06-13T10:56:57.625Z,7.72
2018-06-13T10:59:26.640Z,5.33
2018-06-13T11:01:55.505Z,8.75
2018-06-13T11:04:24.505Z,12.58
2018-06-13T11:06:53.381Z,7.97
2018-06-13T11:09:22.665Z,6.17
2018-06-13T11:11:51.861Z,9.05
2018-06-13T11:14:20.806Z,6.85
2018-06-13T11:16:49.773Z,7.10
2018-06-13T11:19:18.681Z,7.20
2018-06-13T11:21:48.633Z,6.28
2018-06-13T11:24:17.530Z,4.60
2018-06-13T11:26:46.487Z,7.00
2018-06-13T11:29:15.337Z,7.37
2018-06-13T11:31:45.471Z,6.62
2018-06-13T11:34:14.397Z,5.50
2018-06-13T11:36:43.505Z,6.00
2018-06-13T11:39:12.726Z,7.30
2018-06-13T11:41:41.833Z,6.53
2018-06-13T11:44:10.833Z,7.12
2018-06-13T11:46:39.767Z,5.87
2018-06-13T11:49:08.841Z,7.30
2018-06-13T11:51:37.753Z,8.53
2018-06-13T11:54:06.256Z,4.97
2018-06-13T11:56:35.161Z,4.65
2018-06-13T11:59:04.105Z,9.60
2018-06-13T12:01:33.086Z,7.17
2018-06-13T12:04:02.027Z,6.22
2018-06-13T12:06:30.881Z,8.75
2018-06-13T12:08:59.834Z,7.75
2018-06-13T12:11:28.907Z,6.40
2018-06-13T12:13:57.856Z,5.03
2018-06-13T12:16:26.874Z,9.50
2018-06-13T12:18:55.910Z,8.90
2018-06-13T12:21:24.833Z,6.80
2018-06-13T12:23:53.693Z,9.20
2018-06-13T12:26:22.620Z,6.20
2018-06-13T12:28:51.116Z,8.53
2018-06-13T12:31:20.066Z,7.97
2018-06-13T12:33:48.966Z,5.72
2018-06-13T12:36:17.925Z,10.10
2018-06-13T12:38:46.855Z,11.38
2018-06-13T12:41:15.763Z,7.37
2018-06-13T12:43:44.745Z,10.72
2018-06-13T12:46:13.712Z,8.05
2018-06-13T12:48:42.817Z,7.83
2018-06-13T12:51:11.737Z,7.75
2018-06-13T12:53:40.248Z,6.53
2018-06-13T12:56:09.096Z,5.72
2018-06-13T12:58:38.074Z,6.80
2018-06-13T13:01:06.973Z,8.88
2018-06-13T13:03:36.029Z,5.83
2018-06-13T13:06:04.929Z,4.05
2018-06-13T13:08:33.930Z,4.15
2018-06-13T13:11:02.883Z,4.87
2018-06-13T13:13:31.813Z,5.50
2018-06-13T13:16:00.716Z,5.22
2018-06-13T13:18:29.606Z,4.15
2018-06-13T13:20:58.557Z,3.45
2018-06-13T13:23:27.514Z,3.65
2018-06-13T13:25:56.449Z,5.78
2018-06-13T13:28:25.357Z,5.15
2018-06-13T13:30:54.281Z,3.77
2018-06-13T13:33:23.317Z,4.87
2018-06-13T13:35:52.195Z,5.87
2018-06-13T13:38:21.749Z,3.60
2018-06-13T13:40:50.706Z,2.50
2018-06-13T13:43:19.691Z,4.07
2018-06-13T13:45:48.831Z,1.50
2018-06-13T13:48:17.774Z,2.27
2018-06-13T13:50:46.255Z,1.87
2018-06-13T13:53:16.143Z,2.60
2018-06-13T13:55:48.415Z,2.80
2018-06-13T13:58:18.420Z,3.20
2018-06-13T14:00:48.097Z,2.13
2018-06-13T14:03:19.371Z,2.87
2018-06-13T14:05:48.959Z,2.23
2018-06-13T14:08:19.051Z,2.90
2018-06-13T14:10:49.140Z,5.97
2018-06-13T14:13:18.024Z,7.50
2018-06-13T14:15:46.474Z,8.57
2018-06-13T14:18:15.477Z,7.53
2018-06-13T14:20:46.208Z,7.87
2018-06-13T14:23:15.844Z,5.43
2018-06-13T14:25:45.757Z,6.07
2018-06-13T14:28:15.167Z,7.37
2018-06-13T14:30:44.121Z,4.97
2018-06-13T14:33:14.141Z,3.47
2018-06-13T14:35:44.918Z,5.93
2018-06-13T14:38:15.422Z,6.00
2018-06-13T14:40:44.296Z,4.20
2018-06-13T14:43:13.416Z,6.20
2018-06-13T14:45:42.654Z,4.83
2018-06-13T14:48:12.012Z,3.73
2018-06-13T14:50:40.848Z,4.07
2018-06-13T14:53:09.935Z,4.57
2018-06-13T14:55:49.400Z,6.97
2018-06-13T14:58:19.402Z,5.27
2018-06-13T15:00:49.065Z,5.13
2018-06-13T15:03:18.994Z,4.40
2018-06-13T15:05:47.788Z,5.10
2018-06-13T15:08:17.271Z,3.87
2018-06-13T15:10:46.257Z,3.93
2018-06-13T15:13:16.332Z,10.40
2018-06-13T15:15:45.221Z,3.57
2018-06-13T15:18:14.227Z,6.77
2018-06-13T15:20:43.122Z,3.43
2018-06-13T15:23:12.072Z,4.13
2018-06-13T15:25:40.547Z,3.53
2018-06-13T15:28:09.023Z,5.10
2018-06-13T15:30:37.972Z,4.93
2018-06-13T15:33:06.932Z,4.50
2018-06-13T15:35:35.893Z,3.90
2018-06-13T15:38:06.936Z,2.80
2018-06-13T15:40:58.490Z,4.37
2018-06-13T15:43:27.525Z,2.50
2018-06-13T15:45:56.513Z,5.10
2018-06-13T15:48:25.388Z,4.13
2018-06-13T15:50:54.337Z,4.57
2018-06-13T15:53:23.278Z,3.40
2018-06-13T15:55:53.450Z,3.77
2018-06-13T15:58:22.421Z,6.03
2018-06-13T16:00:51.414Z,4.13
2018-06-13T16:03:21.301Z,3.47
2018-06-13T16:05:50.322Z,4.80
2018-06-13T16:08:18.844Z,5.63
2018-06-13T16:10:47.856Z,4.90
2018-06-13T16:13:16.784Z,8.63
2018-06-13T16:15:45.747Z,6.17
2018-06-13T16:18:14.682Z,6.13
2018-06-13T16:20:43.339Z,6.37
2018-06-13T16:23:12.279Z,5.70
2018-06-13T16:25:41.345Z,4.73
2018-06-13T16:28:10.471Z,4.53
2018-06-13T16:30:39.539Z,4.50
2018-06-13T16:33:08.502Z,6.80
2018-06-13T16:35:38.354Z,3.70
2018-06-13T16:38:06.944Z,4.83
2018-06-13T16:40:35.874Z,4.37
2018-06-13T16:43:04.906Z,4.80
2018-06-13T16:45:33.841Z,5.83
2018-06-13T16:48:02.833Z,6.33
2018-06-13T16:50:42.717Z,7.00
2018-06-13T16:54:16.348Z,5.90
2018-06-13T16:56:45.253Z,5.53
2018-06-13T16:59:14.186Z,5.20
2018-06-13T17:01:43.245Z,8.43
2018-06-13T17:04:12.198Z,5.13
2018-06-13T17:06:41.177Z,6.60
2018-06-13T17:09:10.085Z,5.87
2018-06-13T17:11:39.079Z,6.53
2018-06-13T17:14:08.481Z,7.83
2018-06-13T17:16:38.401Z,6.83
2018-06-13T17:19:07.350Z,6.30
2018-06-13T17:21:36.347Z,7.27
2018-06-13T17:24:05.256Z,6.90
2018-06-13T17:26:34.190Z,4.57
2018-06-13T17:29:03.154Z,5.77
2018-06-13T17:31:32.102Z,6.37
2018-06-13T17:34:01.888Z,4.40
2018-06-13T17:36:30.766Z,6.93
2018-06-13T17:38:59.757Z,5.90
2018-06-13T17:41:28.733Z,9.50
2018-06-13T17:43:57.689Z,6.00
2018-06-13T17:46:26.735Z,6.43
2018-06-13T17:48:55.769Z,6.83
2018-06-13T17:51:24.785Z,5.77
2018-06-13T17:53:53.691Z,5.33
2018-06-13T17:56:23.230Z,2.60
2018-06-13T17:58:51.755Z,4.27
2018-06-13T18:01:21.175Z,2.40
2018-06-13T18:03:50.292Z,2.57
2018-06-13T18:06:19.371Z,3.00
2018-06-13T18:08:48.425Z,2.37
2018-06-13T18:11:18.006Z,1.63
2018-06-13T18:13:46.736Z,2.33
2018-06-13T18:16:15.905Z,1.30
2018-06-13T18:18:44.843Z,1.83
2018-06-13T18:21:13.960Z,2.43
2018-06-13T18:23:43.136Z,1.87
2018-06-13T18:26:12.117Z,1.00
2018-06-13T18:28:41.028Z,3.13
2018-06-13T18:31:10.322Z,1.50
2018-06-13T18:33:39.683Z,2.03
2018-06-13T18:36:09.570Z,3.63
2018-06-13T18:38:38.534Z,1.20
2018-06-13T18:41:07.596Z,2.00
2018-06-13T18:43:36.917Z,1.83
2018-06-13T18:46:05.977Z,1.47
2018-06-13T18:48:34.921Z,2.13
2018-06-13T18:51:03.829Z,1.00
2018-06-13T18:53:33.109Z,0.97
2018-06-13T18:56:02.081Z,1.30
2018-06-13T18:58:30.965Z,2.80
2018-06-13T19:01:00.022Z,0.70
2018-06-13T19:03:29.013Z,2.27
2018-06-13T19:05:58.030Z,0.80
2018-06-13T19:08:26.896Z,1.20
2018-06-13T19:10:55.981Z,3.27
2018-06-13T19:13:24.955Z,1.63
2018-06-13T19:15:54.132Z,1.93
2018-06-13T19:18:25.013Z,2.63
2018-06-13T19:20:54.129Z,1.50
2018-06-13T19:23:23.122Z,3.13
2018-06-13T19:25:51.653Z,1.43
2018-06-13T19:28:31.235Z,2.40
2018-06-13T19:31:00.469Z,3.90
2018-06-13T19:33:30.213Z,3.13
2018-06-13T19:35:59.183Z,2.20
2018-06-13T19:38:28.642Z,2.73
2018-06-13T19:40:57.621Z,1.33
2018-06-13T19:43:31.701Z,0.80
2018-06-13T19:46:00.606Z,2.13
2018-06-13T19:48:34.729Z,1.00
2018-06-13T19:51:03.770Z,1.90
2018-06-13T19:53:37.952Z,1.00
2018-06-13T19:56:08.329Z,0.73
2018-06-13T19:58:38.549Z,1.37
2018-06-13T20:01:07.955Z,1.20
2018-06-13T20:03:42.081Z,3.00
2018-06-13T20:06:11.621Z,0.67
2018-06-13T20:08:40.593Z,0.70
2018-06-13T20:11:09.520Z,3.23
2018-06-13T20:13:43.913Z,0.60
2018-06-13T20:16:18.089Z,1.27
2018-06-13T20:18:52.217Z,1.47
2018-06-13T20:21:21.121Z,1.50
2018-06-13T20:23:50.154Z,0.50
2018-06-13T20:26:24.667Z,1.77
2018-06-13T20:28:59.028Z,1.27
2018-06-13T20:31:32.082Z,2.57
2018-06-13T20:34:01.593Z,3.20
2018-06-13T20:36:30.261Z,3.30
2018-06-13T20:38:59.446Z,2.37
2018-06-13T20:41:28.617Z,1.93
2018-06-13T20:43:57.542Z,1.10
2018-06-13T20:46:27.326Z,1.53
2018-06-13T20:48:56.376Z,2.70
2018-06-13T20:51:25.351Z,1.63
2018-06-13T20:53:54.286Z,1.60
2018-06-13T20:56:23.133Z,2.50
2018-06-13T20:58:52.117Z,2.20
2018-06-13T21:03:55.196Z,1.40
2018-06-13T21:06:24.056Z,1.43
2018-06-13T21:08:53.015Z,1.77
2018-06-13T21:11:22.067Z,0.97
2018-06-13T21:13:51.108Z,1.40
2018-06-13T21:16:19.583Z,2.53
2018-06-13T21:18:48.816Z,1.53
2018-06-13T21:21:17.712Z,2.03
2018-06-13T21:23:46.678Z,0.80
2018-06-13T21:26:15.259Z,1.37
2018-06-13T21:28:43.789Z,1.27
2018-06-13T21:31:12.668Z,3.73
2018-06-13T21:33:41.645Z,1.10
2018-06-13T21:36:10.517Z,1.13
2018-06-13T21:38:39.468Z,3.07
2018-06-13T21:41:08.389Z,3.17
2018-06-13T21:43:37.369Z,2.80
2018-06-13T21:46:06.333Z,4.03
2018-06-13T21:48:35.192Z,1.77
2018-06-13T21:51:04.156Z,0.73
2018-06-13T21:53:32.721Z,2.70
2018-06-13T21:56:01.887Z,1.57
2018-06-13T21:58:33.010Z,0.70
2018-06-13T22:01:01.953Z,0.93
2018-06-13T22:03:30.875Z,1.23
2018-06-13T22:05:59.793Z,0.70
2018-06-13T22:08:28.761Z,1.50
2018-06-13T22:10:57.328Z,1.87
2018-06-13T22:13:26.410Z,1.77
2018-06-13T22:15:55.302Z,3.40
2018-06-13T22:18:24.233Z,2.73
2018-06-13T22:20:53.192Z,3.30
2018-06-13T22:23:22.150Z,3.97
2018-06-13T22:25:51.051Z,3.97
2018-06-13T22:28:20.041Z,5.33
2018-06-13T22:30:49.498Z,2.83
2018-06-13T22:33:18.510Z,3.30
2018-06-13T22:35:47.441Z,1.30
2018-06-13T22:38:16.366Z,1.30
2018-06-13T22:40:45.333Z,1.70
2018-06-13T22:43:14.201Z,3.87
2018-06-13T22:45:43.160Z,1.90
2018-06-13T22:48:12.044Z,2.63
2018-06-13T22:50:40.620Z,1.77
2018-06-13T22:53:09.572Z,0.90
2018-06-13T22:55:38.548Z,2.50
2018-06-13T22:58:07.545Z,3.23
2018-06-13T23:01:10.436Z,2.33
2018-06-13T23:03:39.609Z,3.53
2018-06-13T23:06:09.705Z,5.70
2018-06-13T23:08:39.228Z,2.40
2018-06-13T23:11:07.916Z,2.80
2018-06-13T23:13:36.861Z,4.07
2018-06-13T23:16:05.821Z,2.33
2018-06-13T23:18:34.793Z,3.90
2018-06-13T23:21:03.803Z,3.37
2018-06-13T23:23:32.761Z,2.53
2018-06-13T23:26:01.689Z,2.93
2018-06-13T23:28:30.622Z,1.53
2018-06-13T23:30:59.600Z,1.77
2018-06-13T23:33:28.515Z,1.37
2018-06-13T23:35:57.433Z,2.00
2018-06-13T23:38:26.350Z,2.07
2018-06-13T23:40:55.266Z,1.10
2018-06-13T23:43:24.326Z,0.87
2018-06-13T23:45:53.173Z,0.70
2018-06-13T23:48:21.697Z,2.63
2018-06-13T23:50:50.559Z,1.03
2018-06-13T23:53:19.587Z,1.70
2018-06-13T23:55:48.532Z,1.93
2018-06-13T23:58:17.445Z,0.80
